Terminal Aerodrome Forecast
Issued by NWS Tuscon, AZ

Home | Current Version | Previous Version | Text Only | Print | Product List | Glossary On
Versions: 1 2 3 4 5 6 7 8 9 10 11 12 13
174
FTUS45 KTWC 211732
TAFTUS
TAF
KTUS 211732Z 2118/2218 VRB04KT P6SM BKN250
     FM212000 33007KT P6SM BKN250
     FM220300 14010KT P6SM SCT250=

USA.gov is the U.S. government's official web portal to all federal, state and local government web resources and services.